CJP2 weather

Kerrobert Airport
Kerrobert, Saskatchewan, Canada

Public forecast

Using degrees Celsius for public forecast. Weather courtesy of forecast.io.

Closest aviation weather report (METAR) to Kerrobert Airport

Closest report is Kindersley Airport, 24.7 nm (45.7 km) S. Retrieved 2020/05/29 19:00 UTC (37 minutes ago):

CYKY 291900Z 09014G19KT 070V150 15SM SCT100 BKN240 19/02 A3019 RMK AC4CI3 SLP227 DENSITY ALT 3000FT

Closest aviation forecast (TAF) to Kerrobert Airport

Closest forecast is North Battleford Airport, 60.1 nm (111.3 km) NNE. Retrieved 2020/05/29 18:39 UTC (58 minutes ago):

TAF CYQW 291738Z 2918/3006 13008KT P6SM BKN100 RMK FCST BASED ON AUTO OBS NXT FCST BY 300000Z